Time;durP1;ratioP1;P1;durP2;ratioP2;P2;SDS_P1;SDS_P2;PMS_P1;PMS_P2;Temp;Humidity;BMP_temperature;BMP_pressure;BME280_temperature;BME280_humidity;BME280_pressure;Samples;Min_cycle;Max_cycle;Signal;HPM_P1;HPM_P2
2023/12/19 00:00:51;;;;;;;59.05;54.85;;;;;;;;;;5062397;28;20052;-76
2023/12/19 00:03:23;;;;;;;27.08;25.27;;;;;;;;;;5063026;28;20507;-75
2023/12/19 00:05:54;;;;;;;26.35;24.55;;;;;;;;;;5063291;28;20053;-75
2023/12/19 00:08:25;;;;;;;30.40;28.33;;;;;;;;;;5061865;28;20056;-75
2023/12/19 00:10:55;;;;;;;27.85;26.10;;;;;;;;;;5062475;28;20052;-75
2023/12/19 00:13:26;;;;;;;67.57;63.13;;;;;;;;;;5062453;28;20052;-75
2023/12/19 00:15:58;;;;;;;30.40;28.17;;;;;;;;;;5062427;28;20040;-75
2023/12/19 00:18:30;;;;;;;28.90;26.75;;;;;;;;;;5062726;28;20499;-75
2023/12/19 00:21:00;;;;;;;37.55;35.25;;;;;;;;;;5062348;28;20040;-74
2023/12/19 00:23:34;;;;;;;48.17;45.17;;;;;;;;;;5062635;28;20503;-75
2023/12/19 00:26:07;;;;;;;40.78;38.15;;;;;;;;;;5062168;28;20056;-76
2023/12/19 00:28:37;;;;;;;41.20;38.83;;;;;;;;;;5062164;28;20045;-75
2023/12/19 00:31:07;;;;;;;46.47;43.75;;;;;;;;;;5062426;28;20049;-74
2023/12/19 00:33:38;;;;;;;34.33;32.15;;;;;;;;;;5062321;28;20048;-74
2023/12/19 00:36:09;;;;;;;40.65;38.30;;;;;;;;;;5062154;28;20056;-75
2023/12/19 00:38:40;;;;;;;36.53;34.53;;;;;;;;;;5062594;28;20404;-75
2023/12/19 00:41:10;;;;;;;33.63;31.73;;;;;;;;;;5063241;28;20044;-75
2023/12/19 00:43:44;;;;;;;40.63;38.30;;;;;;;;;;5059844;28;20060;-75
2023/12/19 00:46:15;;;;;;;33.33;31.48;;;;;;;;;;5063081;28;20049;-77
2023/12/19 00:48:45;;;;;;;28.10;26.60;;;;;;;;;;5061136;28;20041;-75
2023/12/19 00:51:16;;;;;;;27.77;25.85;;;;;;;;;;5062490;28;20052;-74
2023/12/19 00:53:46;;;;;;;25.33;24.00;;;;;;;;;;5062026;28;20051;-75
2023/12/19 00:56:17;;;;;;;33.25;31.42;;;;;;;;;;5062280;28;20055;-75
2023/12/19 00:58:51;;;;;;;27.50;25.90;;;;;;;;;;5062247;28;20040;-76
2023/12/19 01:01:25;;;;;;;34.08;31.80;;;;;;;;;;5062573;28;20053;-75
2023/12/19 01:03:55;;;;;;;43.35;41.08;;;;;;;;;;5059769;28;20040;-75
2023/12/19 01:06:26;;;;;;;48.15;44.80;;;;;;;;;;5059851;28;20052;-74
2023/12/19 01:09:00;;;;;;;48.58;45.80;;;;;;;;;;5060422;28;20503;-74
2023/12/19 01:11:30;;;;;;;42.63;40.13;;;;;;;;;;5061433;28;20045;-75
2023/12/19 01:14:01;;;;;;;30.80;28.98;;;;;;;;;;5062109;28;21222;-74
2023/12/19 01:16:31;;;;;;;25.63;24.20;;;;;;;;;;5062342;28;20553;-74
2023/12/19 01:19:03;;;;;;;22.67;21.38;;;;;;;;;;5062204;28;20053;-74
2023/12/19 01:21:33;;;;;;;28.08;26.52;;;;;;;;;;5060255;28;20529;-75
2023/12/19 01:24:05;;;;;;;58.38;55.10;;;;;;;;;;5060777;28;20059;-75
2023/12/19 01:26:35;;;;;;;57.05;53.70;;;;;;;;;;5060726;28;20044;-74
2023/12/19 01:29:06;;;;;;;51.15;48.25;;;;;;;;;;5060612;28;20045;-75
2023/12/19 01:31:36;;;;;;;47.95;45.20;;;;;;;;;;5061203;28;20060;-75
2023/12/19 01:34:07;;;;;;;44.78;42.15;;;;;;;;;;5061578;28;20496;-76
2023/12/19 01:36:41;;;;;;;19.55;18.35;;;;;;;;;;5061536;28;20048;-75
2023/12/19 01:39:28;;;;;;;21.77;20.45;;;;;;;;;;5061694;28;20056;-75
2023/12/19 01:41:58;;;;;;;24.05;22.67;;;;;;;;;;5060682;28;20049;-76
2023/12/19 01:44:29;;;;;;;24.83;23.35;;;;;;;;;;5061625;28;20044;-75
2023/12/19 01:46:59;;;;;;;29.15;27.48;;;;;;;;;;5061230;28;20119;-75
2023/12/19 01:49:30;;;;;;;35.53;33.58;;;;;;;;;;5059639;28;20055;-76
2023/12/19 01:52:01;;;;;;;45.53;42.83;;;;;;;;;;5061257;28;20036;-75
2023/12/19 01:54:33;;;;;;;27.50;26.02;;;;;;;;;;5061961;28;20833;-76
2023/12/19 01:57:04;;;;;;;33.55;31.65;;;;;;;;;;5061686;28;20115;-76
2023/12/19 01:59:39;;;;;;;27.58;25.40;;;;;;;;;;5060809;28;20052;-76
2023/12/19 02:02:11;;;;;;;30.55;28.50;;;;;;;;;;5061238;28;20091;-76
2023/12/19 02:04:41;;;;;;;26.52;24.80;;;;;;;;;;5060810;28;20403;-75
2023/12/19 02:07:11;;;;;;;20.92;19.60;;;;;;;;;;5060629;28;20056;-75
2023/12/19 02:09:42;;;;;;;25.13;23.67;;;;;;;;;;5060574;28;20419;-76
2023/12/19 02:12:12;;;;;;;21.27;19.98;;;;;;;;;;5061319;28;20098;-75
2023/12/19 02:14:44;;;;;;;25.95;24.33;;;;;;;;;;5061272;28;20056;-76
2023/12/19 02:17:16;;;;;;;26.45;24.73;;;;;;;;;;5060657;28;20060;-75
2023/12/19 02:19:49;;;;;;;26.88;24.92;;;;;;;;;;5060918;28;20040;-75
2023/12/19 02:22:22;;;;;;;24.83;23.13;;;;;;;;;;5060735;28;20060;-75
2023/12/19 02:24:54;;;;;;;21.95;20.58;;;;;;;;;;5060495;28;20071;-76
2023/12/19 02:27:26;;;;;;;23.27;21.65;;;;;;;;;;5060808;28;20074;-75
2023/12/19 02:29:56;;;;;;;50.00;46.50;;;;;;;;;;5060656;28;20415;-75
2023/12/19 02:32:27;;;;;;;57.53;54.33;;;;;;;;;;5061304;28;20045;-75
2023/12/19 02:34:57;;;;;;;55.33;52.10;;;;;;;;;;5061040;28;20057;-76
2023/12/19 02:37:27;;;;;;;56.17;52.97;;;;;;;;;;5060647;28;20040;-75
2023/12/19 02:39:57;;;;;;;26.60;24.98;;;;;;;;;;5062708;28;20048;-75
2023/12/19 02:42:29;;;;;;;26.95;25.10;;;;;;;;;;5063025;28;20061;-75
2023/12/19 02:44:59;;;;;;;23.67;22.20;;;;;;;;;;5064195;28;20055;-75
2023/12/19 02:47:30;;;;;;;28.20;26.08;;;;;;;;;;5064327;28;20070;-75
2023/12/19 02:50:00;;;;;;;29.23;27.45;;;;;;;;;;5064002;28;20056;-75
2023/12/19 02:52:32;;;;;;;94.22;88.25;;;;;;;;;;5064558;28;20036;-75
2023/12/19 02:55:02;;;;;;;67.10;63.08;;;;;;;;;;5063722;28;20056;-75
2023/12/19 02:57:33;;;;;;;29.33;27.27;;;;;;;;;;5064653;28;20048;-75
2023/12/19 03:00:03;;;;;;;30.20;28.58;;;;;;;;;;5063431;28;20040;-74
2023/12/19 03:02:34;;;;;;;76.97;72.32;;;;;;;;;;5063816;28;20415;-74
2023/12/19 03:05:06;;;;;;;72.43;68.05;;;;;;;;;;5063616;28;20060;-74
2023/12/19 03:07:37;;;;;;;66.00;62.08;;;;;;;;;;5063837;28;20052;-74
2023/12/19 03:10:08;;;;;;;69.53;65.38;;;;;;;;;;5062628;28;20083;-74
2023/12/19 03:12:40;;;;;;;72.75;68.45;;;;;;;;;;5063112;28;20049;-75
2023/12/19 03:15:11;;;;;;;54.63;51.38;;;;;;;;;;5062349;28;20048;-74
2023/12/19 03:17:41;;;;;;;44.90;42.38;;;;;;;;;;5063344;28;20040;-74
2023/12/19 03:20:11;;;;;;;48.97;46.03;;;;;;;;;;5063307;28;20053;-75
2023/12/19 03:22:42;;;;;;;54.28;51.05;;;;;;;;;;5063388;28;20044;-74
2023/12/19 03:25:14;;;;;;;28.38;26.88;;;;;;;;;;5063588;28;20064;-75
2023/12/19 03:27:44;;;;;;;33.80;31.75;;;;;;;;;;5064152;28;20052;-78
2023/12/19 03:30:14;;;;;;;29.40;27.73;;;;;;;;;;5063405;28;20051;-74
2023/12/19 03:32:46;;;;;;;29.67;28.00;;;;;;;;;;5063100;28;20589;-74
2023/12/19 03:35:16;;;;;;;29.15;27.52;;;;;;;;;;5062751;28;20053;-74
2023/12/19 03:37:47;;;;;;;29.88;28.17;;;;;;;;;;5063288;28;20049;-74
2023/12/19 03:40:17;;;;;;;28.50;26.70;;;;;;;;;;5063018;28;20057;-74
2023/12/19 03:42:48;;;;;;;30.15;27.98;;;;;;;;;;5061396;28;20056;-74
2023/12/19 03:45:19;;;;;;;28.65;26.88;;;;;;;;;;5045229;28;20523;-74
2023/12/19 03:47:49;;;;;;;30.10;28.10;;;;;;;;;;5063470;28;20601;-74
2023/12/19 03:50:19;;;;;;;27.63;26.02;;;;;;;;;;5063521;28;20661;-74
2023/12/19 03:52:51;;;;;;;24.70;23.02;;;;;;;;;;5062194;28;20048;-74
2023/12/19 03:55:21;;;;;;;62.72;58.63;;;;;;;;;;5062938;28;20048;-74
2023/12/19 03:57:52;;;;;;;45.03;42.40;;;;;;;;;;5062553;28;20357;-75
2023/12/19 04:00:22;;;;;;;24.70;22.70;;;;;;;;;;5062535;28;20060;-74
2023/12/19 04:02:52;;;;;;;56.67;53.35;;;;;;;;;;5063879;28;20530;-74
2023/12/19 04:05:24;;;;;;;64.95;61.22;;;;;;;;;;5062571;28;20055;-74
2023/12/19 04:07:55;;;;;;;53.28;50.28;;;;;;;;;;5063321;28;20056;-75
2023/12/19 04:10:25;;;;;;;80.30;75.20;;;;;;;;;;5062977;28;20049;-74
2023/12/19 04:12:55;;;;;;;63.20;59.10;;;;;;;;;;5063386;28;20045;-74
2023/12/19 04:15:26;;;;;;;26.83;25.10;;;;;;;;;;5063365;28;20408;-74
2023/12/19 04:17:57;;;;;;;22.55;21.15;;;;;;;;;;5062849;28;20487;-74
2023/12/19 04:20:28;;;;;;;24.02;22.73;;;;;;;;;;5063577;28;20048;-74
2023/12/19 04:22:58;;;;;;;23.55;22.15;;;;;;;;;;5062187;28;20044;-74
2023/12/19 04:25:30;;;;;;;23.13;21.58;;;;;;;;;;5061928;28;20067;-74
2023/12/19 04:28:07;;;;;;;26.77;25.02;;;;;;;;;;5062740;28;20047;-74
2023/12/19 04:30:38;;;;;;;24.08;22.65;;;;;;;;;;5062674;28;20048;-74
2023/12/19 04:33:10;;;;;;;25.52;23.95;;;;;;;;;;5062459;28;20106;-74
2023/12/19 04:35:41;;;;;;;24.20;22.75;;;;;;;;;;5061982;28;20048;-75
2023/12/19 04:38:12;;;;;;;58.20;54.53;;;;;;;;;;5062098;28;20521;-74
2023/12/19 04:40:42;;;;;;;57.38;53.90;;;;;;;;;;5061629;28;20049;-74
2023/12/19 04:43:12;;;;;;;51.58;48.42;;;;;;;;;;5061614;28;20617;-74
2023/12/19 04:45:43;;;;;;;40.08;37.30;;;;;;;;;;5061713;28;20052;-74
2023/12/19 04:48:15;;;;;;;42.55;39.67;;;;;;;;;;5061411;28;20056;-74
2023/12/19 04:50:45;;;;;;;32.25;29.70;;;;;;;;;;5061916;28;20055;-74
2023/12/19 04:53:16;;;;;;;35.35;33.20;;;;;;;;;;5061873;28;20044;-74
2023/12/19 04:55:47;;;;;;;28.70;27.00;;;;;;;;;;5061837;28;20388;-74
2023/12/19 04:58:19;;;;;;;26.90;25.30;;;;;;;;;;5060530;28;20032;-75
2023/12/19 05:00:51;;;;;;;25.13;23.45;;;;;;;;;;5059740;28;20447;-75
2023/12/19 05:03:22;;;;;;;26.55;25.05;;;;;;;;;;5061517;28;20052;-74
2023/12/19 05:05:52;;;;;;;24.98;23.25;;;;;;;;;;5062194;28;20040;-74
2023/12/19 05:08:25;;;;;;;23.38;22.05;;;;;;;;;;5062010;28;20400;-74
2023/12/19 05:10:56;;;;;;;24.08;22.05;;;;;;;;;;5061813;28;20044;-75
2023/12/19 05:13:28;;;;;;;23.33;21.70;;;;;;;;;;5061884;28;20048;-74
2023/12/19 05:16:00;;;;;;;20.95;18.80;;;;;;;;;;5061479;28;20416;-74
2023/12/19 05:18:32;;;;;;;25.55;23.83;;;;;;;;;;5061742;28;20052;-74
2023/12/19 05:21:03;;;;;;;23.75;21.67;;;;;;;;;;5061241;28;20427;-74
2023/12/19 05:23:37;;;;;;;26.23;24.23;;;;;;;;;;5061647;28;20451;-74
2023/12/19 05:26:10;;;;;;;21.85;20.45;;;;;;;;;;5061219;28;20641;-74
2023/12/19 05:28:41;;;;;;;27.45;25.65;;;;;;;;;;5061758;28;20598;-74
2023/12/19 05:31:12;;;;;;;25.33;23.75;;;;;;;;;;5060981;28;20052;-74
2023/12/19 05:33:43;;;;;;;20.77;19.48;;;;;;;;;;5061321;28;20055;-74
2023/12/19 05:36:15;;;;;;;23.13;21.73;;;;;;;;;;5061188;28;20075;-74
2023/12/19 05:38:46;;;;;;;23.98;22.13;;;;;;;;;;5061739;28;20064;-74
2023/12/19 05:41:17;;;;;;;23.65;22.15;;;;;;;;;;5061484;28;20045;-74
2023/12/19 05:43:47;;;;;;;24.92;22.92;;;;;;;;;;5062296;28;20415;-74
2023/12/19 05:46:19;;;;;;;24.40;23.00;;;;;;;;;;5061290;28;20055;-74
2023/12/19 05:48:49;;;;;;;23.63;22.17;;;;;;;;;;5059953;28;20059;-74
2023/12/19 05:51:20;;;;;;;28.70;26.75;;;;;;;;;;5061824;28;20499;-75
2023/12/19 05:53:56;;;;;;;26.90;25.33;;;;;;;;;;5061326;28;20868;-74
2023/12/19 05:56:27;;;;;;;34.33;32.17;;;;;;;;;;5060991;28;20036;-74
2023/12/19 05:58:58;;;;;;;32.08;29.73;;;;;;;;;;5060610;28;20056;-74
2023/12/19 06:01:29;;;;;;;27.92;25.80;;;;;;;;;;5060727;28;20059;-74
2023/12/19 06:04:01;;;;;;;31.25;29.13;;;;;;;;;;5060981;28;20057;-74
2023/12/19 06:06:34;;;;;;;29.90;27.25;;;;;;;;;;5061423;28;20048;-74
2023/12/19 06:09:05;;;;;;;27.02;25.20;;;;;;;;;;5060894;28;20045;-74
2023/12/19 06:11:35;;;;;;;27.77;25.85;;;;;;;;;;5060591;28;20056;-74
2023/12/19 06:14:06;;;;;;;33.38;30.88;;;;;;;;;;5061350;28;20048;-74
2023/12/19 06:16:38;;;;;;;35.15;32.20;;;;;;;;;;5064966;28;20051;-74
2023/12/19 06:19:09;;;;;;;42.50;38.95;;;;;;;;;;5064129;28;20059;-74
2023/12/19 06:21:40;;;;;;;50.05;46.35;;;;;;;;;;5065710;28;20049;-74
2023/12/19 06:24:11;;;;;;;38.83;35.55;;;;;;;;;;5065077;28;20066;-74
2023/12/19 06:26:43;;;;;;;43.15;39.63;;;;;;;;;;5064121;28;20517;-74
2023/12/19 06:29:14;;;;;;;41.10;36.83;;;;;;;;;;5064670;28;20052;-74
2023/12/19 06:31:44;;;;;;;41.33;38.05;;;;;;;;;;5064419;28;20683;-74
2023/12/19 06:34:15;;;;;;;41.63;38.10;;;;;;;;;;5064133;28;20665;-74
2023/12/19 06:36:49;;;;;;;42.47;38.50;;;;;;;;;;5063985;28;20044;-74
2023/12/19 06:39:20;;;;;;;44.78;41.30;;;;;;;;;;5063452;28;20052;-74
2023/12/19 06:41:53;;;;;;;39.72;36.80;;;;;;;;;;5064934;28;20067;-74
2023/12/19 06:44:23;;;;;;;43.05;39.75;;;;;;;;;;5064900;28;20067;-74
2023/12/19 06:46:54;;;;;;;38.33;35.42;;;;;;;;;;5064914;28;20048;-74
2023/12/19 06:49:25;;;;;;;39.22;36.10;;;;;;;;;;5063009;28;20052;-74
2023/12/19 06:51:56;;;;;;;40.53;37.50;;;;;;;;;;5062883;28;20055;-74
2023/12/19 06:54:27;;;;;;;43.00;39.90;;;;;;;;;;5064027;28;20045;-74
2023/12/19 06:56:58;;;;;;;37.47;34.20;;;;;;;;;;5064100;28;20044;-74
2023/12/19 06:59:32;;;;;;;39.40;36.65;;;;;;;;;;5064228;28;20521;-74
2023/12/19 07:02:03;;;;;;;38.05;35.22;;;;;;;;;;5063792;28;20415;-74
2023/12/19 07:04:33;;;;;;;37.08;34.03;;;;;;;;;;5063981;28;20059;-73
2023/12/19 07:07:04;;;;;;;37.28;34.40;;;;;;;;;;5062640;28;20059;-73
2023/12/19 07:09:37;;;;;;;41.70;38.70;;;;;;;;;;5064155;28;20053;-74
2023/12/19 07:12:08;;;;;;;37.20;34.53;;;;;;;;;;5063613;28;20415;-74
2023/12/19 07:14:42;;;;;;;38.92;36.00;;;;;;;;;;5063756;28;20056;-74
2023/12/19 07:17:14;;;;;;;37.88;35.10;;;;;;;;;;5063618;28;20044;-74
2023/12/19 07:19:45;;;;;;;36.60;33.63;;;;;;;;;;5064424;28;20063;-74
2023/12/19 07:22:16;;;;;;;40.70;37.83;;;;;;;;;;5064353;28;20048;-73
2023/12/19 07:24:47;;;;;;;40.30;37.13;;;;;;;;;;5064319;28;20048;-74
2023/12/19 07:27:18;;;;;;;38.40;35.85;;;;;;;;;;5063068;28;20048;-74
2023/12/19 07:29:49;;;;;;;36.38;34.00;;;;;;;;;;5062635;28;20060;-74
2023/12/19 07:32:20;;;;;;;34.08;31.38;;;;;;;;;;5063550;28;20048;-74
2023/12/19 07:34:51;;;;;;;37.10;34.42;;;;;;;;;;5061902;28;20048;-74
2023/12/19 07:37:22;;;;;;;38.92;36.33;;;;;;;;;;5063068;28;20122;-74
2023/12/19 07:39:53;;;;;;;34.90;32.63;;;;;;;;;;5063664;28;20103;-74
2023/12/19 07:42:24;;;;;;;38.20;35.08;;;;;;;;;;5061671;28;20059;-74
2023/12/19 07:44:54;;;;;;;34.63;32.22;;;;;;;;;;5061971;28;20053;-74
2023/12/19 07:47:24;;;;;;;38.05;35.00;;;;;;;;;;5063146;28;20799;-74
2023/12/19 07:49:56;;;;;;;36.42;33.55;;;;;;;;;;5063500;28;20063;-74
2023/12/19 07:52:29;;;;;;;34.33;32.17;;;;;;;;;;5063700;28;20052;-74
2023/12/19 07:55:00;;;;;;;37.28;34.40;;;;;;;;;;5062624;28;20051;-74
2023/12/19 07:57:30;;;;;;;35.58;33.15;;;;;;;;;;5063957;28;20049;-74
2023/12/19 08:00:03;;;;;;;35.08;32.72;;;;;;;;;;5062754;28;20048;-74
2023/12/19 08:02:39;;;;;;;41.15;38.38;;;;;;;;;;5067809;28;20057;-74
2023/12/19 08:05:12;;;;;;;39.30;35.88;;;;;;;;;;5061741;28;21166;-74
2023/12/19 08:07:42;;;;;;;35.72;33.20;;;;;;;;;;5062866;28;20565;-74
2023/12/19 08:10:14;;;;;;;38.90;35.85;;;;;;;;;;5062443;28;20411;-74
2023/12/19 08:12:45;;;;;;;38.85;36.30;;;;;;;;;;5062123;28;20041;-74
2023/12/19 08:15:16;;;;;;;50.15;46.78;;;;;;;;;;5063337;28;20064;-74
2023/12/19 08:17:46;;;;;;;41.25;38.38;;;;;;;;;;5063035;28;20513;-74
2023/12/19 08:20:17;;;;;;;39.38;36.78;;;;;;;;;;5062303;28;20056;-74
2023/12/19 08:22:49;;;;;;;36.53;33.53;;;;;;;;;;5062009;28;20048;-75
2023/12/19 08:25:20;;;;;;;40.30;37.42;;;;;;;;;;5063374;28;20602;-74
2023/12/19 08:27:50;;;;;;;42.30;38.97;;;;;;;;;;5063533;28;20071;-74
2023/12/19 08:30:24;;;;;;;38.28;35.45;;;;;;;;;;5062505;28;20055;-74
2023/12/19 08:32:55;;;;;;;36.30;32.95;;;;;;;;;;5062667;28;20040;-74
2023/12/19 08:35:26;;;;;;;41.85;38.72;;;;;;;;;;5061868;28;20586;-74
2023/12/19 08:37:56;;;;;;;42.28;39.17;;;;;;;;;;5062828;28;20053;-74
2023/12/19 08:40:27;;;;;;;35.35;32.80;;;;;;;;;;5061537;28;20048;-74
2023/12/19 08:42:58;;;;;;;32.20;29.63;;;;;;;;;;5062331;28;20037;-74
2023/12/19 08:45:28;;;;;;;33.47;30.95;;;;;;;;;;5060625;28;20044;-74
2023/12/19 08:47:58;;;;;;;37.65;34.60;;;;;;;;;;5062246;28;20522;-74
2023/12/19 08:50:29;;;;;;;34.58;31.73;;;;;;;;;;5062171;28;20350;-75
2023/12/19 08:53:00;;;;;;;33.15;30.40;;;;;;;;;;5062487;28;20045;-74
2023/12/19 08:55:31;;;;;;;59.83;55.63;;;;;;;;;;5062521;28;20044;-74
2023/12/19 08:58:02;;;;;;;33.38;30.13;;;;;;;;;;5062114;28;20423;-75
2023/12/19 09:00:32;;;;;;;35.28;32.38;;;;;;;;;;5062187;28;20057;-75
2023/12/19 09:03:05;;;;;;;36.85;34.20;;;;;;;;;;5061412;28;20491;-75
2023/12/19 09:05:36;;;;;;;34.47;31.80;;;;;;;;;;5062238;28;20053;-75
2023/12/19 09:08:07;;;;;;;34.00;31.55;;;;;;;;;;5061181;28;20036;-74
2023/12/19 09:10:36;;;;;;;39.33;36.13;;;;;;;;;;5061303;28;20522;-75
2023/12/19 09:13:08;;;;;;;39.75;36.22;;;;;;;;;;5061632;28;20044;-74
2023/12/19 09:15:39;;;;;;;36.50;33.55;;;;;;;;;;5059660;28;20052;-74
2023/12/19 09:18:09;;;;;;;34.65;32.03;;;;;;;;;;5061995;28;20040;-74
2023/12/19 09:20:40;;;;;;;35.97;33.05;;;;;;;;;;5061746;28;20044;-74
2023/12/19 09:23:12;;;;;;;37.58;34.28;;;;;;;;;;5061087;28;20491;-79
2023/12/19 09:25:46;;;;;;;52.00;47.22;;;;;;;;;;5061503;28;20399;-74
2023/12/19 09:28:17;;;;;;;35.15;32.25;;;;;;;;;;5060864;28;20064;-74
2023/12/19 09:30:47;;;;;;;60.20;55.42;;;;;;;;;;5061823;28;20679;-75
2023/12/19 09:33:17;;;;;;;34.92;32.13;;;;;;;;;;5062019;28;20036;-76
2023/12/19 09:35:48;;;;;;;99.40;92.40;;;;;;;;;;5061319;28;20047;-75
2023/12/19 09:38:19;;;;;;;44.03;40.28;;;;;;;;;;5060742;28;21085;-75
2023/12/19 09:40:49;;;;;;;47.30;43.88;;;;;;;;;;5060144;28;20064;-75
2023/12/19 09:43:19;;;;;;;49.65;46.05;;;;;;;;;;5061740;28;20060;-75
2023/12/19 09:45:51;;;;;;;52.50;47.75;;;;;;;;;;5061326;28;20053;-74
2023/12/19 09:48:22;;;;;;;56.75;52.63;;;;;;;;;;5060937;28;20426;-75
2023/12/19 09:50:54;;;;;;;56.03;51.80;;;;;;;;;;5065267;28;20052;-80
2023/12/19 09:53:25;;;;;;;60.13;55.50;;;;;;;;;;5065411;28;20051;-75
2023/12/19 09:56:06;;;;;;;66.68;62.05;;;;;;;;;;5066058;28;20045;-75
2023/12/19 09:58:38;;;;;;;60.70;55.78;;;;;;;;;;5065239;28;20055;-75
2023/12/19 10:01:10;;;;;;;65.75;60.45;;;;;;;;;;5065175;28;20107;-74
2023/12/19 10:03:42;;;;;;;61.67;57.28;;;;;;;;;;5065459;28;20052;-74
2023/12/19 10:06:13;;;;;;;63.85;59.10;;;;;;;;;;5065441;28;20064;-74
2023/12/19 10:08:45;;;;;;;47.42;43.97;;;;;;;;;;5063497;28;20045;-75
2023/12/19 10:11:17;;;;;;;41.60;38.35;;;;;;;;;;5064055;28;20921;-75
2023/12/19 10:13:50;;;;;;;40.30;37.40;;;;;;;;;;5064797;28;20045;-75
2023/12/19 10:16:21;;;;;;;41.95;38.65;;;;;;;;;;5064413;28;20399;-75
2023/12/19 10:19:02;;;;;;;36.20;33.42;;;;;;;;;;5063657;28;20044;-82
2023/12/19 10:21:34;;;;;;;43.15;40.25;;;;;;;;;;5065140;28;20041;-75
2023/12/19 10:24:09;;;;;;;40.78;37.78;;;;;;;;;;5064607;28;20503;-75
2023/12/19 10:26:40;;;;;;;;;;;;;;;;;;5065102;28;20055;-75
2023/12/19 10:29:11;;;;;;;39.03;35.92;;;;;;;;;;5064977;28;19924;-76
2023/12/19 10:31:41;;;;;;;38.30;35.40;;;;;;;;;;5065086;28;20071;-75
2023/12/19 10:34:22;;;;;;;42.50;39.35;;;;;;;;;;5064746;28;20048;-75
2023/12/19 10:36:53;;;;;;;;;;;;;;;;;;5056625;28;20312;-74
2023/12/19 10:39:24;;;;;;;36.13;33.20;;;;;;;;;;5044258;28;20372;-75
2023/12/19 10:42:05;;;;;;;44.78;41.50;;;;;;;;;;5044662;28;20045;-75
2023/12/19 10:44:36;;;;;;;40.63;37.42;;;;;;;;;;5043167;28;20048;-76
2023/12/19 10:47:11;;;;;;;53.42;49.20;;;;;;;;;;5042799;28;20631;-75
2023/12/19 10:49:43;;;;;;;79.65;72.45;;;;;;;;;;5042894;28;20053;-75
2023/12/19 10:52:19;;;;;;;64.00;59.72;;;;;;;;;;5044608;28;20059;-76
2023/12/19 10:54:55;;;;;;;54.83;51.05;;;;;;;;;;5043872;28;20408;-76
2023/12/19 10:57:31;;;;;;;52.00;48.03;;;;;;;;;;5043114;28;20045;-75
2023/12/19 11:00:10;;;;;;;44.50;40.78;;;;;;;;;;5044026;28;20534;-76
2023/12/19 11:02:46;;;;;;;45.33;41.75;;;;;;;;;;5044405;28;20045;-75
2023/12/19 11:05:34;;;;;;;38.38;35.50;;;;;;;;;;5044152;28;20049;-76
2023/12/19 11:08:06;;;;;;;;;;;;;;;;;;5044368;28;20045;-75
2023/12/19 11:10:39;;;;;;;38.03;35.28;;;;;;;;;;5043948;28;20311;-75
2023/12/19 11:13:11;;;;;;;37.78;34.78;;;;;;;;;;5044038;28;20052;-75
2023/12/19 11:15:51;;;;;;;42.63;39.83;;;;;;;;;;5043660;28;20049;-75
2023/12/19 11:18:35;;;;;;;41.67;38.15;;;;;;;;;;5042464;28;20399;-76
2023/12/19 11:21:19;;;;;;;53.60;48.85;;;;;;;;;;5044757;28;20044;-75
2023/12/19 11:24:25;;;;;;;46.30;42.72;;;;;;;;;;5044082;28;20044;-75
2023/12/19 11:27:04;;;;;;;45.33;41.95;;;;;;;;;;5044225;28;20049;-73
2023/12/19 11:29:46;;;;;;;41.50;38.20;;;;;;;;;;5045216;28;20060;-76
2023/12/19 11:32:31;;;;;;;37.28;34.63;;;;;;;;;;5045054;28;20695;-75
2023/12/19 11:35:11;;;;;;;36.35;33.67;;;;;;;;;;5042881;28;20072;-75
2023/12/19 11:37:46;;;;;;;42.95;39.83;;;;;;;;;;5043110;28;20854;-75
2023/12/19 11:40:50;;;;;;;38.97;36.42;;;;;;;;;;5042111;28;20049;-75
2023/12/19 11:43:31;;;;;;;39.97;37.30;;;;;;;;;;5043041;28;20056;-75
2023/12/19 11:46:04;;;;;;;;;;;;;;;;;;5044861;28;20052;-75
2023/12/19 11:48:39;;;;;;;39.13;36.47;;;;;;;;;;5043465;28;19936;-75
2023/12/19 11:51:11;;;;;;;;;;;;;;;;;;5043275;28;20091;-75
2023/12/19 11:53:42;;;;;;;39.60;36.92;;;;;;;;;;5042470;28;19925;-81
2023/12/19 11:56:13;;;;;;;40.08;37.13;;;;;;;;;;5042735;28;20044;-75
2023/12/19 11:58:51;;;;;;;40.88;37.75;;;;;;;;;;5043038;28;20223;-75
2023/12/19 12:01:22;;;;;;;40.28;37.10;;;;;;;;;;5043289;28;20072;-75
2023/12/19 12:04:13;;;;;;;39.72;36.63;;;;;;;;;;5042556;28;20053;-74
2023/12/19 12:06:45;;;;;;;39.08;36.15;;;;;;;;;;5043753;28;20049;-76
2023/12/19 12:09:19;;;;;;;38.70;35.72;;;;;;;;;;5043046;28;20092;-76
2023/12/19 12:11:54;;;;;;;37.92;35.13;;;;;;;;;;5040796;28;20539;-80
2023/12/19 12:14:27;;;;;;;35.25;32.65;;;;;;;;;;5043133;28;20072;-79
2023/12/19 12:16:58;;;;;;;34.67;31.75;;;;;;;;;;5042993;28;20047;-81
2023/12/19 12:19:29;;;;;;;39.97;36.75;;;;;;;;;;5042935;28;20049;-79
2023/12/19 12:22:01;;;;;;;44.85;41.40;;;;;;;;;;5043065;28;20056;-75
2023/12/19 12:24:32;;;;;;;37.33;34.05;;;;;;;;;;5043161;28;20037;-74
2023/12/19 12:27:12;;;;;;;35.83;33.22;;;;;;;;;;5041457;28;20079;-84
2023/12/19 12:29:42;;;;;;;34.35;31.58;;;;;;;;;;5042246;28;20053;-75
2023/12/19 12:32:13;;;;;;;31.95;29.55;;;;;;;;;;5040719;28;20068;-74
2023/12/19 12:34:47;;;;;;;35.65;32.83;;;;;;;;;;5042670;28;20112;-74
2023/12/19 12:37:19;;;;;;;40.15;37.35;;;;;;;;;;5042353;28;20052;-74
2023/12/19 12:39:51;;;;;;;43.53;39.90;;;;;;;;;;5042100;28;20393;-73
2023/12/19 12:42:23;;;;;;;41.28;38.13;;;;;;;;;;5044112;28;20527;-74
2023/12/19 12:45:01;;;;;;;35.20;32.35;;;;;;;;;;5043450;28;20076;-74
2023/12/19 12:47:35;;;;;;;39.05;36.15;;;;;;;;;;5042675;28;20049;-75
2023/12/19 12:50:06;;;;;;;30.27;28.05;;;;;;;;;;5043075;28;20491;-74
2023/12/19 12:52:40;;;;;;;32.25;29.67;;;;;;;;;;5042281;28;20514;-74
2023/12/19 12:55:12;;;;;;;33.53;30.88;;;;;;;;;;5043086;28;20602;-74
2023/12/19 12:57:43;;;;;;;37.15;34.30;;;;;;;;;;5043596;28;20049;-75
2023/12/19 13:00:14;;;;;;;35.85;32.60;;;;;;;;;;5042171;28;20502;-75
2023/12/19 13:02:57;;;;;;;28.50;26.30;;;;;;;;;;5044201;28;20053;-74
2023/12/19 13:05:28;;;;;;;29.13;27.00;;;;;;;;;;5042710;28;20059;-74
2023/12/19 13:07:59;;;;;;;31.85;29.45;;;;;;;;;;5042300;28;20044;-75
2023/12/19 13:10:31;;;;;;;35.45;32.45;;;;;;;;;;5042547;28;20045;-74
2023/12/19 13:13:02;;;;;;;35.38;32.92;;;;;;;;;;5041485;28;20055;-75
2023/12/19 13:15:33;;;;;;;29.65;27.23;;;;;;;;;;5041939;28;20538;-74
2023/12/19 13:18:04;;;;;;;33.00;30.80;;;;;;;;;;5042060;28;20044;-77
2023/12/19 13:20:37;;;;;;;29.05;26.38;;;;;;;;;;5039517;28;20431;-75
2023/12/19 13:23:10;;;;;;;32.08;29.77;;;;;;;;;;5040947;28;20045;-74
2023/12/19 13:25:43;;;;;;;29.35;26.83;;;;;;;;;;5040963;28;20051;-75
2023/12/19 13:28:14;;;;;;;25.98;24.25;;;;;;;;;;5041369;28;20053;-75
2023/12/19 13:30:45;;;;;;;30.55;28.42;;;;;;;;;;5041135;28;20049;-77
2023/12/19 13:33:16;;;;;;;29.20;27.27;;;;;;;;;;5041238;28;20045;-75
2023/12/19 13:35:47;;;;;;;25.55;23.65;;;;;;;;;;5041323;28;20052;-75
2023/12/19 13:38:18;;;;;;;27.38;25.30;;;;;;;;;;5041595;28;20049;-75
2023/12/19 13:40:49;;;;;;;36.67;34.22;;;;;;;;;;5042276;28;20507;-75
2023/12/19 13:43:21;;;;;;;37.03;34.63;;;;;;;;;;5041781;28;20056;-74
2023/12/19 13:45:52;;;;;;;32.35;30.10;;;;;;;;;;5041465;28;20049;-74
2023/12/19 13:48:22;;;;;;;27.77;25.23;;;;;;;;;;5040178;28;20415;-74
2023/12/19 13:50:52;;;;;;;25.80;24.23;;;;;;;;;;5041010;28;20052;-75
2023/12/19 13:53:23;;;;;;;29.60;27.45;;;;;;;;;;5040851;28;20051;-74
2023/12/19 13:55:54;;;;;;;30.52;28.55;;;;;;;;;;5041111;28;20503;-74
2023/12/19 13:58:25;;;;;;;25.90;24.02;;;;;;;;;;5040717;28;20065;-83
2023/12/19 14:00:56;;;;;;;31.58;29.30;;;;;;;;;;5040045;28;20057;-74
2023/12/19 14:03:26;;;;;;;22.10;20.35;;;;;;;;;;5040646;28;20044;-74
2023/12/19 14:05:58;;;;;;;24.23;22.63;;;;;;;;;;5040468;28;20041;-79
2023/12/19 14:08:31;;;;;;;25.25;23.27;;;;;;;;;;5041863;28;20045;-75
2023/12/19 14:11:02;;;;;;;21.23;19.52;;;;;;;;;;5041231;28;20053;-74
2023/12/19 14:13:31;;;;;;;21.52;19.88;;;;;;;;;;5041488;28;20049;-74
2023/12/19 14:16:04;;;;;;;33.17;31.02;;;;;;;;;;5039708;28;20049;-74
2023/12/19 14:18:36;;;;;;;28.50;26.70;;;;;;;;;;5041075;28;20538;-74
2023/12/19 14:21:06;;;;;;;22.85;21.20;;;;;;;;;;5041055;28;20045;-74
2023/12/19 14:23:36;;;;;;;22.25;20.35;;;;;;;;;;5040231;28;20511;-74
2023/12/19 14:26:07;;;;;;;30.38;28.35;;;;;;;;;;5041017;28;20049;-74
2023/12/19 14:28:39;;;;;;;22.25;20.65;;;;;;;;;;5038759;28;20064;-75
2023/12/19 14:31:14;;;;;;;31.13;29.08;;;;;;;;;;5040193;28;20056;-75
2023/12/19 14:33:48;;;;;;;34.92;32.50;;;;;;;;;;5040307;28;20041;-75
2023/12/19 14:36:18;;;;;;;28.50;26.58;;;;;;;;;;5042618;28;20045;-75
2023/12/19 14:38:52;;;;;;;29.15;27.20;;;;;;;;;;5043754;28;20057;-74
2023/12/19 14:41:34;;;;;;;19.17;17.58;;;;;;;;;;5044407;28;20037;-75
2023/12/19 14:44:06;;;;;;;20.73;19.17;;;;;;;;;;5044862;28;20048;-75
2023/12/19 14:46:37;;;;;;;21.38;19.88;;;;;;;;;;5045339;28;20443;-75